createdAt,value
2022-12-15T00:02:17.477Z,-4.40
2022-12-15T00:05:03.239Z,-4.40
2022-12-15T00:07:48.680Z,-4.40
2022-12-15T00:10:34.229Z,-4.40
2022-12-15T00:13:19.513Z,-4.40
2022-12-15T00:16:06.381Z,-4.50
2022-12-15T00:18:51.918Z,-4.40
2022-12-15T00:21:37.354Z,-4.50
2022-12-15T00:24:22.776Z,-4.50
2022-12-15T00:27:07.954Z,-4.50
2022-12-15T00:29:53.384Z,-4.50
2022-12-15T00:32:38.623Z,-4.50
2022-12-15T00:35:24.407Z,-4.50
2022-12-15T00:38:09.899Z,-4.50
2022-12-15T00:40:36.691Z,-4.60
2022-12-15T00:43:03.957Z,-4.60
2022-12-15T00:45:49.537Z,-4.60
2022-12-15T00:48:16.339Z,-4.60
2022-12-15T00:50:53.353Z,-4.70
2022-12-15T00:53:40.206Z,-4.60
2022-12-15T00:56:26.253Z,-4.70
2022-12-15T00:59:12.204Z,-4.70
2022-12-15T01:01:58.672Z,-4.70
2022-12-15T01:04:44.655Z,-4.70
2022-12-15T01:07:30.066Z,-4.70
2022-12-15T01:10:15.373Z,-4.70
2022-12-15T01:13:00.578Z,-4.70
2022-12-15T01:15:46.172Z,-4.70
2022-12-15T01:18:31.643Z,-4.70
2022-12-15T01:21:03.093Z,-4.70
2022-12-15T01:23:31.607Z,-4.70
2022-12-15T01:25:58.699Z,-4.70
2022-12-15T01:28:25.506Z,-4.70
2022-12-15T01:30:52.319Z,-4.80
2022-12-15T01:33:20.616Z,-4.80
2022-12-15T01:36:01.447Z,-4.80
2022-12-15T01:38:29.280Z,-4.80
2022-12-15T01:41:01.465Z,-4.80
2022-12-15T01:43:32.544Z,-4.80
2022-12-15T01:46:02.687Z,-4.80
2022-12-15T01:48:38.807Z,-4.90
2022-12-15T01:51:31.721Z,-4.90
2022-12-15T01:54:01.623Z,-4.80
2022-12-15T01:56:33.986Z,-4.90
2022-12-15T01:59:04.736Z,-4.90
2022-12-15T02:01:37.598Z,-4.90
2022-12-15T02:04:04.417Z,-4.90
2022-12-15T02:06:31.233Z,-4.90
2022-12-15T02:08:59.398Z,-4.90
2022-12-15T02:12:01.855Z,-4.90
2022-12-15T02:15:06.028Z,-4.90
2022-12-15T02:17:46.429Z,-5.00
2022-12-15T02:20:16.247Z,-5.00
2022-12-15T02:23:01.691Z,-5.10
2022-12-15T02:25:50.703Z,-5.00
2022-12-15T02:28:39.649Z,-5.10
2022-12-15T02:31:36.171Z,-5.00
2022-12-15T02:34:12.071Z,-5.00
2022-12-15T02:36:41.059Z,-5.10
2022-12-15T02:39:07.857Z,-5.00
2022-12-15T02:41:36.311Z,-5.10
2022-12-15T02:44:10.407Z,-5.10
2022-12-15T02:47:03.342Z,-5.10
2022-12-15T02:49:51.427Z,-5.10
2022-12-15T02:52:38.470Z,-5.10
2022-12-15T02:55:08.367Z,-5.10
2022-12-15T02:57:59.151Z,-5.10
2022-12-15T03:00:28.422Z,-5.10
2022-12-15T03:02:59.109Z,-5.20
2022-12-15T03:05:26.061Z,-5.20
2022-12-15T03:07:54.366Z,-5.20
2022-12-15T03:10:23.776Z,-5.20
2022-12-15T03:12:50.890Z,-5.20
2022-12-15T03:15:18.603Z,-5.30
2022-12-15T03:17:45.415Z,-5.20
2022-12-15T03:20:12.239Z,-5.30
2022-12-15T03:22:40.292Z,-5.30
2022-12-15T03:25:07.475Z,-5.30
2022-12-15T03:27:35.367Z,-5.30
2022-12-15T03:30:02.277Z,-5.30
2022-12-15T03:32:29.658Z,-5.30
2022-12-15T03:34:56.483Z,-5.30
2022-12-15T03:37:23.283Z,-5.30
2022-12-15T03:39:50.821Z,-5.40
2022-12-15T03:42:37.583Z,-5.30
2022-12-15T03:45:04.932Z,-5.30
2022-12-15T03:47:32.130Z,-5.40
2022-12-15T03:49:59.055Z,-5.40
2022-12-15T03:52:25.898Z,-5.40
2022-12-15T03:54:52.642Z,-5.40
2022-12-15T03:57:19.535Z,-5.40
2022-12-15T03:59:46.347Z,-5.40
2022-12-15T04:02:13.522Z,-5.40
2022-12-15T04:04:40.491Z,-5.40
2022-12-15T04:07:07.309Z,-5.40
2022-12-15T04:09:34.078Z,-5.40
2022-12-15T04:12:03.330Z,-5.50
2022-12-15T04:14:30.531Z,-5.50
2022-12-15T04:16:57.481Z,-5.50
2022-12-15T04:19:42.822Z,-5.50
2022-12-15T04:22:13.709Z,-5.50
2022-12-15T04:25:01.800Z,-5.60
2022-12-15T04:27:47.289Z,-5.60
2022-12-15T04:30:32.641Z,-5.70
2022-12-15T04:33:18.556Z,-5.60
2022-12-15T04:36:03.993Z,-5.60
2022-12-15T04:38:50.942Z,-5.70
2022-12-15T04:41:37.270Z,-5.70
2022-12-15T04:44:23.170Z,-5.70
2022-12-15T04:47:08.724Z,-5.70
2022-12-15T04:49:54.107Z,-5.70
2022-12-15T04:52:39.364Z,-5.70
2022-12-15T04:55:25.509Z,-5.70
2022-12-15T04:58:10.876Z,-5.70
2022-12-15T05:00:56.458Z,-5.70
2022-12-15T05:03:41.915Z,-5.70
2022-12-15T05:06:27.385Z,-5.70
2022-12-15T05:09:12.759Z,-5.70
2022-12-15T05:11:58.224Z,-5.80
2022-12-15T05:14:43.843Z,-5.80
2022-12-15T05:17:29.145Z,-5.80
2022-12-15T05:20:14.713Z,-5.80
2022-12-15T05:22:59.932Z,-5.80
2022-12-15T05:25:45.356Z,-5.80
2022-12-15T05:28:30.744Z,-5.80
2022-12-15T05:31:16.184Z,-5.90
2022-12-15T05:33:43.075Z,-5.80
2022-12-15T05:36:09.866Z,-5.90
2022-12-15T05:38:36.661Z,-5.80
2022-12-15T05:41:03.507Z,-5.90
2022-12-15T05:43:30.740Z,-5.90
2022-12-15T05:46:04.138Z,-5.90
2022-12-15T05:48:31.027Z,-5.90
2022-12-15T05:50:57.834Z,-5.90
2022-12-15T05:53:24.617Z,-5.90
2022-12-15T05:55:51.391Z,-5.90
2022-12-15T05:58:18.187Z,-5.80
2022-12-15T06:00:44.959Z,-5.80
2022-12-15T06:03:11.799Z,-5.80
2022-12-15T06:05:39.453Z,-5.80
2022-12-15T06:08:06.240Z,-5.80
2022-12-15T06:10:33.045Z,-5.90
2022-12-15T06:12:59.860Z,-5.90
2022-12-15T06:15:26.678Z,-5.90
2022-12-15T06:17:55.784Z,-5.90
2022-12-15T06:20:22.576Z,-5.80
2022-12-15T06:22:52.036Z,-5.90
2022-12-15T06:25:18.920Z,-5.90
2022-12-15T06:27:45.705Z,-5.90
2022-12-15T06:30:13.019Z,-5.90
2022-12-15T06:32:39.823Z,-6.00
2022-12-15T06:35:07.118Z,-6.00
2022-12-15T06:37:33.927Z,-6.00
2022-12-15T06:40:00.942Z,-6.00
2022-12-15T06:42:27.721Z,-6.00
2022-12-15T06:44:54.486Z,-6.00
2022-12-15T06:47:21.293Z,-6.00
2022-12-15T06:49:48.019Z,-6.00
2022-12-15T06:52:14.957Z,-6.00
2022-12-15T06:54:42.368Z,-6.00
2022-12-15T06:57:09.162Z,-6.00
2022-12-15T06:59:35.930Z,-6.00
2022-12-15T07:02:02.753Z,-6.00
2022-12-15T07:04:32.437Z,-6.00
2022-12-15T07:06:59.230Z,-6.00
2022-12-15T07:09:26.330Z,-6.00
2022-12-15T07:11:53.136Z,-6.00
2022-12-15T07:14:19.926Z,-6.00
2022-12-15T07:16:46.914Z,-6.00
2022-12-15T07:19:13.957Z,-6.10
2022-12-15T07:21:41.616Z,-6.10
2022-12-15T07:24:12.241Z,-6.10
2022-12-15T07:26:39.688Z,-6.10
2022-12-15T07:29:06.477Z,-6.00
2022-12-15T07:31:33.290Z,-6.00
2022-12-15T07:34:00.199Z,-6.00
2022-12-15T07:36:27.812Z,-6.00
2022-12-15T07:39:01.591Z,-6.10
2022-12-15T07:41:30.096Z,-6.10
2022-12-15T07:43:57.941Z,-6.10
2022-12-15T07:46:26.435Z,-6.00
2022-12-15T07:48:53.559Z,-6.00
2022-12-15T07:51:21.615Z,-6.10
2022-12-15T07:53:50.081Z,-6.10
2022-12-15T07:56:17.908Z,-6.10
2022-12-15T07:58:45.063Z,-6.10
2022-12-15T08:01:13.706Z,-6.00
2022-12-15T08:03:41.172Z,-6.00
2022-12-15T08:06:10.525Z,-6.00
2022-12-15T08:08:37.825Z,-6.10
2022-12-15T08:11:06.020Z,-6.10
2022-12-15T08:16:21.203Z,-6.00
2022-12-15T08:18:49.038Z,-6.00
2022-12-15T08:21:15.948Z,-6.00
2022-12-15T08:23:42.866Z,-6.00
2022-12-15T08:26:15.948Z,-6.00
2022-12-15T08:28:43.503Z,-6.00
2022-12-15T08:31:16.824Z,-6.00
2022-12-15T08:33:44.798Z,-6.00
2022-12-15T08:36:14.151Z,-6.10
2022-12-15T08:38:41.923Z,-6.10
2022-12-15T08:41:10.828Z,-6.10
2022-12-15T08:43:42.544Z,-6.10
2022-12-15T08:46:13.095Z,-6.00
2022-12-15T08:48:40.141Z,-6.00
2022-12-15T08:51:08.039Z,-6.00
2022-12-15T08:53:34.926Z,-6.00
2022-12-15T08:56:04.281Z,-6.00
2022-12-15T08:58:31.126Z,-6.00
2022-12-15T09:01:06.895Z,-5.90
2022-12-15T09:03:35.176Z,-5.90
2022-12-15T09:06:12.260Z,-5.90
2022-12-15T09:08:39.173Z,-5.90
2022-12-15T09:11:06.115Z,-5.90
2022-12-15T09:13:33.509Z,-5.80
2022-12-15T09:16:15.214Z,-5.80
2022-12-15T09:18:43.364Z,-5.60
2022-12-15T09:21:11.321Z,-5.60
2022-12-15T09:23:39.244Z,-5.60
2022-12-15T09:26:07.415Z,-5.60
2022-12-15T09:28:34.550Z,-5.50
2022-12-15T09:31:10.857Z,-5.50
2022-12-15T09:33:39.049Z,-5.50
2022-12-15T09:36:06.858Z,-5.50
2022-12-15T09:38:36.233Z,-5.40
2022-12-15T09:41:15.491Z,-5.30
2022-12-15T09:43:58.594Z,-5.40
2022-12-15T09:46:57.574Z,-5.30
2022-12-15T09:49:42.733Z,-5.20
2022-12-15T09:52:17.744Z,-5.10
2022-12-15T09:54:44.950Z,-5.10
2022-12-15T09:57:23.307Z,-5.00
2022-12-15T10:00:17.769Z,-4.50
2022-12-15T10:03:22.693Z,-4.50
2022-12-15T10:06:21.289Z,-4.60
2022-12-15T10:08:50.987Z,-4.60
2022-12-15T10:14:44.661Z,-4.60
2022-12-15T10:17:38.471Z,-4.60
2022-12-15T10:20:18.908Z,-4.50
2022-12-15T10:22:46.028Z,-4.50
2022-12-15T10:25:29.757Z,-4.40
2022-12-15T10:28:15.763Z,-4.40
2022-12-15T10:30:49.437Z,-4.40
2022-12-15T10:33:21.109Z,-4.40
2022-12-15T10:35:48.960Z,-4.30
2022-12-15T10:38:26.283Z,-4.20
2022-12-15T10:40:59.271Z,-4.20
2022-12-15T10:43:31.539Z,-4.20
2022-12-15T10:46:10.713Z,-4.10
2022-12-15T10:48:39.646Z,-4.00
2022-12-15T10:51:32.614Z,-4.00
2022-12-15T10:54:13.071Z,-3.80
2022-12-15T10:56:54.647Z,-3.90
2022-12-15T10:59:36.531Z,-3.90
2022-12-15T11:02:24.281Z,-3.70
2022-12-15T11:05:04.851Z,-3.60
2022-12-15T11:07:41.177Z,-3.50
2022-12-15T11:10:14.310Z,-3.50
2022-12-15T11:12:58.362Z,-3.40
2022-12-15T11:15:37.325Z,-3.30
2022-12-15T11:18:38.374Z,-3.20
2022-12-15T11:21:11.307Z,-3.10
2022-12-15T11:23:57.136Z,-3.00
2022-12-15T11:26:49.041Z,-2.90
2022-12-15T11:29:21.348Z,-2.80
2022-12-15T11:31:48.933Z,-2.70
2022-12-15T11:34:24.722Z,-2.60
2022-12-15T11:36:51.511Z,-2.50
2022-12-15T11:39:41.987Z,-2.40
2022-12-15T11:42:17.931Z,-2.40
2022-12-15T11:45:06.942Z,-2.20
2022-12-15T11:48:13.243Z,-2.10
2022-12-15T11:50:52.996Z,-2.10
2022-12-15T11:53:54.266Z,-1.90
2022-12-15T11:56:41.996Z,-1.90
2022-12-15T11:59:36.603Z,-1.80
2022-12-15T12:02:41.246Z,-1.70
2022-12-15T12:05:31.842Z,-1.60
2022-12-15T12:08:15.226Z,-1.40
2022-12-15T12:11:00.945Z,-1.40
2022-12-15T12:13:40.621Z,-1.20
2022-12-15T12:16:13.469Z,-1.00
2022-12-15T12:18:43.672Z,-1.00
2022-12-15T12:21:15.972Z,-0.90
2022-12-15T12:23:48.739Z,-0.80
2022-12-15T12:26:21.649Z,-0.80
2022-12-15T12:28:57.051Z,-0.60
2022-12-15T12:31:47.186Z,-0.40
2022-12-15T12:35:32.094Z,-0.20
2022-12-15T12:37:49.423Z,0.00
2022-12-15T12:40:22.746Z,0.10
2022-12-15T12:42:59.635Z,0.20
2022-12-15T12:45:40.607Z,0.30
2022-12-15T12:48:31.997Z,0.40
2022-12-15T12:51:26.911Z,0.50
2022-12-15T12:53:54.436Z,0.60
2022-12-15T12:56:40.481Z,0.80
2022-12-15T12:59:29.238Z,1.00
2022-12-15T13:01:57.657Z,1.20
2022-12-15T13:04:30.763Z,1.20
2022-12-15T13:07:08.876Z,1.40
2022-12-15T13:10:09.895Z,1.50
2022-12-15T13:12:53.996Z,1.80
2022-12-15T13:15:27.229Z,1.90
2022-12-15T13:18:06.621Z,2.00
2022-12-15T13:20:35.758Z,2.10
2022-12-15T13:23:36.778Z,2.30
2022-12-15T13:26:03.857Z,2.40
2022-12-15T13:28:38.305Z,2.60
2022-12-15T13:31:20.999Z,2.80
2022-12-15T13:33:51.025Z,2.90
2022-12-15T13:36:37.021Z,3.10
2022-12-15T13:39:17.000Z,3.30
2022-12-15T13:42:15.354Z,3.40
2022-12-15T13:44:41.915Z,3.60
2022-12-15T13:47:21.052Z,3.70
2022-12-15T13:49:53.159Z,3.60
2022-12-15T13:53:16.510Z,3.40
2022-12-15T13:55:28.367Z,3.30
2022-12-15T13:58:03.064Z,3.30
2022-12-15T14:00:29.961Z,3.20
2022-12-15T14:03:07.565Z,3.20
2022-12-15T14:05:34.611Z,3.20
2022-12-15T14:08:02.971Z,3.20
2022-12-15T14:10:33.062Z,3.20
2022-12-15T14:13:15.879Z,3.20
2022-12-15T14:15:46.210Z,3.20
2022-12-15T14:18:33.930Z,3.20
2022-12-15T14:21:02.230Z,3.20
2022-12-15T14:23:58.016Z,3.20
2022-12-15T14:26:31.854Z,3.20
2022-12-15T14:29:03.983Z,3.20
2022-12-15T14:31:31.215Z,3.20
2022-12-15T14:34:04.000Z,3.10
2022-12-15T14:36:31.166Z,3.10
2022-12-15T14:39:06.925Z,3.10
2022-12-15T14:41:37.541Z,3.10
2022-12-15T14:46:54.942Z,3.00
2022-12-15T14:49:55.501Z,3.10
2022-12-15T14:52:29.004Z,3.10
2022-12-15T14:55:02.166Z,3.00
2022-12-15T14:57:40.620Z,3.00
2022-12-15T15:00:49.788Z,3.00
2022-12-15T15:03:06.024Z,3.00
2022-12-15T15:03:06.438Z,-4.60
2022-12-15T15:03:25.268Z,3.00
2022-12-15T15:05:57.204Z,3.10
2022-12-15T15:08:56.554Z,3.00
2022-12-15T15:11:25.126Z,3.10
2022-12-15T15:13:58.116Z,3.10
2022-12-15T15:16:25.196Z,3.10
2022-12-15T15:18:53.761Z,2.90
2022-12-15T15:21:23.051Z,2.80
2022-12-15T15:24:11.388Z,2.90
2022-12-15T15:26:40.025Z,2.80
2022-12-15T15:29:34.379Z,2.80
2022-12-15T15:32:19.642Z,2.70
2022-12-15T15:34:47.318Z,2.70
2022-12-15T15:37:22.961Z,2.70
2022-12-15T15:39:56.055Z,2.60
2022-12-15T15:42:26.555Z,2.60
2022-12-15T15:44:55.946Z,2.60
2022-12-15T15:47:26.552Z,2.50
2022-12-15T15:49:54.957Z,2.40
2022-12-15T15:52:22.516Z,2.50
2022-12-15T15:54:49.508Z,2.40
2022-12-15T15:57:17.506Z,2.40
2022-12-15T15:59:45.199Z,2.30
2022-12-15T16:02:13.728Z,2.30
2022-12-15T16:04:42.426Z,2.30
2022-12-15T16:07:27.857Z,2.20
2022-12-15T16:09:54.811Z,2.10
2022-12-15T16:12:30.372Z,2.10
2022-12-15T16:14:57.203Z,2.00
2022-12-15T16:17:24.138Z,2.00
2022-12-15T16:19:51.020Z,1.90
2022-12-15T16:22:21.714Z,1.90
2022-12-15T16:24:48.587Z,1.90
2022-12-15T16:27:15.829Z,1.80
2022-12-15T16:29:42.882Z,1.70
2022-12-15T16:32:11.243Z,1.70
2022-12-15T16:34:38.059Z,1.70
2022-12-15T16:37:05.371Z,1.50
2022-12-15T16:39:34.121Z,1.40
2022-12-15T16:42:01.073Z,1.30
2022-12-15T16:44:29.467Z,1.30
2022-12-15T16:46:57.453Z,1.30
2022-12-15T16:49:24.906Z,1.20
2022-12-15T16:51:53.848Z,1.20
2022-12-15T16:54:24.103Z,1.10
2022-12-15T16:56:52.184Z,1.10
2022-12-15T16:59:32.915Z,1.10
2022-12-15T17:02:01.004Z,1.00
2022-12-15T17:04:28.011Z,0.90
2022-12-15T17:06:54.941Z,0.80
2022-12-15T17:09:25.406Z,0.80
2022-12-15T17:11:52.237Z,0.80
2022-12-15T17:14:19.126Z,0.80
2022-12-15T17:16:45.941Z,0.80
2022-12-15T17:19:17.551Z,0.70
2022-12-15T17:21:49.891Z,0.70
2022-12-15T17:24:18.857Z,0.70
2022-12-15T17:26:45.681Z,0.60
2022-12-15T17:29:20.605Z,0.60
2022-12-15T17:31:47.527Z,0.50
2022-12-15T17:34:31.958Z,0.30
2022-12-15T17:37:00.656Z,0.40
2022-12-15T17:39:28.454Z,0.30
2022-12-15T17:42:00.458Z,0.30
2022-12-15T17:44:33.592Z,0.30
2022-12-15T17:47:02.617Z,0.20
2022-12-15T17:49:35.013Z,0.20
2022-12-15T17:52:05.502Z,0.20
2022-12-15T17:54:36.173Z,0.20
2022-12-15T17:57:03.069Z,0.20
2022-12-15T17:59:31.643Z,0.10
2022-12-15T18:01:58.550Z,0.00
2022-12-15T18:04:25.514Z,0.00
2022-12-15T18:06:58.032Z,0.00
2022-12-15T18:09:28.025Z,-0.10
2022-12-15T18:11:54.870Z,-0.10
2022-12-15T18:14:22.901Z,-0.30
2022-12-15T18:16:50.064Z,-0.20
2022-12-15T18:19:16.928Z,-0.30
2022-12-15T18:21:43.754Z,-0.40
2022-12-15T18:24:13.286Z,-0.50
2022-12-15T18:26:40.227Z,-0.50
2022-12-15T18:29:13.262Z,-0.50
2022-12-15T18:31:41.001Z,-0.50
2022-12-15T18:34:17.472Z,-0.50
2022-12-15T18:36:45.624Z,-0.60
2022-12-15T18:39:18.879Z,-0.60
2022-12-15T18:41:46.060Z,-0.70
2022-12-15T18:44:23.270Z,-0.70
2022-12-15T18:46:50.217Z,-0.80
2022-12-15T18:49:18.144Z,-1.00
2022-12-15T18:51:46.407Z,-1.10
2022-12-15T18:54:19.118Z,-1.00
2022-12-15T18:56:45.889Z,-1.00
2022-12-15T18:59:17.316Z,-1.00
2022-12-15T19:01:45.842Z,-1.00
2022-12-15T19:04:13.301Z,-1.10
2022-12-15T19:06:41.013Z,-1.10
2022-12-15T19:09:14.552Z,-1.10
2022-12-15T19:12:01.623Z,-1.10
2022-12-15T19:14:40.675Z,-1.20
2022-12-15T19:17:29.572Z,-1.20
2022-12-15T19:20:15.330Z,-1.20
2022-12-15T19:22:42.546Z,-1.20
2022-12-15T19:25:25.053Z,-1.30
2022-12-15T19:27:55.099Z,-1.30
2022-12-15T19:30:22.271Z,-1.30
2022-12-15T19:32:49.782Z,-1.30
2022-12-15T19:35:16.772Z,-1.30
2022-12-15T19:37:44.759Z,-1.30
2022-12-15T19:40:22.327Z,-1.40
2022-12-15T19:42:49.485Z,-1.40
2022-12-15T19:45:18.088Z,-1.40
2022-12-15T19:47:45.274Z,-1.50
2022-12-15T19:50:36.395Z,-1.50
2022-12-15T19:53:25.569Z,-1.50
2022-12-15T19:55:54.608Z,-1.50
2022-12-15T19:58:29.622Z,-1.50
2022-12-15T20:01:02.101Z,-1.50
2022-12-15T20:03:30.467Z,-1.50
2022-12-15T20:05:58.728Z,-1.50
2022-12-15T20:08:28.990Z,-1.60
2022-12-15T20:10:56.552Z,-1.60
2022-12-15T20:13:23.807Z,-1.60
2022-12-15T20:15:50.700Z,-1.60
2022-12-15T20:18:17.551Z,-1.70
2022-12-15T20:20:45.768Z,-1.70
2022-12-15T20:23:16.587Z,-1.70
2022-12-15T20:25:43.916Z,-1.70
2022-12-15T20:28:15.947Z,-1.80
2022-12-15T20:30:43.170Z,-1.80
2022-12-15T20:33:10.558Z,-1.80
2022-12-15T20:35:37.473Z,-1.80
2022-12-15T20:38:15.928Z,-1.80
2022-12-15T20:40:42.781Z,-1.80
2022-12-15T20:43:17.293Z,-1.80
2022-12-15T20:45:45.277Z,-1.80
2022-12-15T20:48:13.859Z,-1.90
2022-12-15T20:50:46.234Z,-1.80
2022-12-15T20:53:19.649Z,-1.90
2022-12-15T20:55:47.991Z,-1.90
2022-12-15T20:58:15.364Z,-1.90
2022-12-15T21:00:42.523Z,-2.00
2022-12-15T21:03:25.979Z,-1.90
2022-12-15T21:05:55.892Z,-2.00
2022-12-15T21:08:25.789Z,-2.00
2022-12-15T21:10:54.409Z,-1.90
2022-12-15T21:13:31.328Z,-1.90
2022-12-15T21:15:59.472Z,-2.00
2022-12-15T21:19:10.799Z,-2.00
2022-12-15T21:21:23.222Z,-2.00
2022-12-15T21:23:50.298Z,-2.00
2022-12-15T21:26:20.009Z,-2.00
2022-12-15T21:28:48.866Z,-1.90
2022-12-15T21:31:19.144Z,-1.90
2022-12-15T21:33:46.781Z,-1.90
2022-12-15T21:36:15.516Z,-1.90
2022-12-15T21:38:44.221Z,-1.90
2022-12-15T21:41:17.251Z,-2.00
2022-12-15T21:43:44.253Z,-2.00
2022-12-15T21:46:15.258Z,-2.00
2022-12-15T21:49:01.554Z,-2.00
2022-12-15T21:51:43.224Z,-2.00
2022-12-15T21:54:16.524Z,-2.00
2022-12-15T21:56:43.637Z,-2.10
2022-12-15T21:59:31.331Z,-2.10
2022-12-15T22:02:00.538Z,-2.10
2022-12-15T22:04:33.618Z,-2.10
2022-12-15T22:07:00.867Z,-2.10
2022-12-15T22:09:28.281Z,-2.10
2022-12-15T22:11:55.974Z,-2.10
2022-12-15T22:14:26.595Z,-2.10
2022-12-15T22:16:55.286Z,-2.10
2022-12-15T22:19:22.740Z,-2.10
2022-12-15T22:21:49.783Z,-2.10
2022-12-15T22:24:16.911Z,-2.10
2022-12-15T22:26:43.898Z,-2.20
2022-12-15T22:29:17.394Z,-2.20
2022-12-15T22:31:44.503Z,-2.20
2022-12-15T22:34:19.279Z,-2.20
2022-12-15T22:36:49.802Z,-2.20
2022-12-15T22:39:20.737Z,-2.20
2022-12-15T22:41:50.471Z,-2.40
2022-12-15T22:44:21.066Z,-2.40
2022-12-15T22:46:49.090Z,-2.50
2022-12-15T22:49:20.623Z,-2.40
2022-12-15T22:51:47.629Z,-2.40
2022-12-15T22:54:19.133Z,-2.40
2022-12-15T22:56:47.442Z,-2.40
2022-12-15T22:59:24.775Z,-2.40
2022-12-15T23:01:51.751Z,-2.40
2022-12-15T23:04:18.797Z,-2.40
2022-12-15T23:06:45.647Z,-2.40
2022-12-15T23:09:12.468Z,-2.40
2022-12-15T23:11:39.524Z,-2.40
2022-12-15T23:14:09.590Z,-2.40
2022-12-15T23:16:37.127Z,-2.40
2022-12-15T23:19:04.888Z,-2.40
2022-12-15T23:21:32.419Z,-2.40
2022-12-15T23:23:59.444Z,-2.40
2022-12-15T23:26:27.258Z,-2.30
2022-12-15T23:28:55.781Z,-2.30
2022-12-15T23:31:23.008Z,-2.30
2022-12-15T23:33:52.148Z,-2.30
2022-12-15T23:36:19.169Z,-2.30
2022-12-15T23:38:46.383Z,-2.30
2022-12-15T23:41:17.605Z,-2.30
2022-12-15T23:43:44.730Z,-2.30
2022-12-15T23:46:11.797Z,-2.30
2022-12-15T23:48:40.919Z,-2.30
2022-12-15T23:51:16.198Z,-2.30
2022-12-15T23:53:44.117Z,-2.30
2022-12-15T23:56:22.727Z,-2.30
2022-12-15T23:58:55.631Z,-2.30
